Terminal Aerodrome Forecast
Issued by NWS

Home | Current Version | Previous Version | Graphics & Text | Print | Product List | Glossary On
Versions: 1 2 3 4 5 6 7 8 9 10 11 12 13 14 15 16 17 18 19 20 21 22 23 24 25 26 27 28 29 30 31 32 33 34 35 36 37 38 39 40 41 42 43 44 45 46 47 48 49 50
000
FTUS43 KLOT 242320
TAFGYY
TAF
KGYY 242320Z 2500/2524 01013G21KT 6SM HZ FEW007 BKN080 OVC250
     FM250100 03013KT 6SM BR VCTS SCT007 BKN060CB
     FM250500 05009KT 3SM -SHRA BR SCT004 OVC007
     FM250800 06009KT 2SM -SHRA BR SCT002 OVC004
      TEMPO 2511/2514 1SM -DZ BR OVC003
     FM251500 10012KT 3SM -RADZ BR OVC004
     FM252100 15012KT 5SM -SHRA BR BKN015=

USA.gov is the U.S. government's official web portal to all federal, state and local government web resources and services.